createdAt,value
2022-08-06T00:00:03.233Z,1.60
2022-08-06T00:02:22.825Z,4.20
2022-08-06T00:04:57.731Z,3.07
2022-08-06T00:07:28.393Z,3.90
2022-08-06T00:10:01.509Z,15.63
2022-08-06T00:12:32.461Z,9.30
2022-08-06T00:15:12.772Z,5.87
2022-08-06T00:17:43.626Z,2.80
2022-08-06T00:20:20.935Z,2.37
2022-08-06T00:22:54.705Z,4.20
2022-08-06T00:25:22.904Z,3.73
2022-08-06T00:27:52.202Z,3.40
2022-08-06T00:30:21.973Z,3.03
2022-08-06T00:32:53.367Z,4.40
2022-08-06T00:35:23.896Z,1.83
2022-08-06T00:37:59.103Z,3.10
2022-08-06T00:40:29.931Z,5.43
2022-08-06T00:43:02.183Z,2.90
2022-08-06T00:45:31.514Z,2.10
2022-08-06T00:48:05.212Z,5.57
2022-08-06T00:50:38.126Z,1.57
2022-08-06T00:53:06.788Z,4.07
2022-08-06T00:55:59.702Z,2.13
2022-08-06T00:58:39.588Z,2.90
2022-08-06T01:01:17.221Z,3.60
2022-08-06T01:03:51.650Z,2.67
2022-08-06T01:06:54.636Z,4.00
2022-08-06T01:09:09.976Z,2.70
2022-08-06T01:11:39.360Z,3.40
2022-08-06T01:14:10.079Z,2.73
2022-08-06T01:16:45.419Z,3.07
2022-08-06T01:21:20.361Z,3.40
2022-08-06T01:22:56.359Z,5.20
2022-08-06T01:26:01.443Z,4.27
2022-08-06T01:28:38.486Z,3.10
2022-08-06T01:31:11.101Z,2.87
2022-08-06T01:33:46.814Z,3.23
2022-08-06T01:36:28.319Z,3.10
2022-08-06T01:39:01.673Z,2.40
2022-08-06T01:41:58.326Z,2.80
2022-08-06T01:44:33.662Z,3.13
2022-08-06T01:47:15.947Z,2.60
2022-08-06T01:50:00.564Z,3.93
2022-08-06T01:52:34.126Z,3.37
2022-08-06T01:55:04.068Z,2.50
2022-08-06T01:58:08.397Z,2.53
2022-08-06T02:00:27.013Z,4.30
2022-08-06T02:03:00.730Z,3.43
2022-08-06T02:05:32.137Z,1.83
2022-08-06T02:08:38.653Z,1.90
2022-08-06T02:10:52.271Z,1.57
2022-08-06T02:13:23.397Z,3.13
2022-08-06T02:15:58.743Z,1.87
2022-08-06T02:18:35.071Z,3.37
2022-08-06T02:21:18.720Z,3.77
2022-08-06T02:23:50.830Z,3.17
2022-08-06T02:26:20.592Z,3.53
2022-08-06T02:28:55.739Z,1.73
2022-08-06T02:31:25.393Z,3.57
2022-08-06T02:34:02.990Z,3.07
2022-08-06T02:36:50.126Z,2.73
2022-08-06T02:39:30.227Z,2.60
2022-08-06T02:42:20.175Z,2.17
2022-08-06T02:44:57.458Z,3.50
2022-08-06T02:47:53.170Z,1.43
2022-08-06T02:50:25.487Z,2.73
2022-08-06T02:53:03.664Z,4.53
2022-08-06T02:55:36.482Z,1.70
2022-08-06T02:58:12.856Z,2.33
2022-08-06T03:00:51.766Z,1.83
2022-08-06T03:03:34.515Z,1.73
2022-08-06T03:06:07.051Z,2.20
2022-08-06T03:08:37.760Z,2.10
2022-08-06T03:11:07.814Z,3.17
2022-08-06T03:13:36.718Z,1.97
2022-08-06T03:16:23.093Z,3.37
2022-08-06T03:19:55.052Z,2.10
2022-08-06T03:21:55.603Z,3.57
2022-08-06T03:24:27.374Z,2.53
2022-08-06T03:26:58.624Z,2.50
2022-08-06T03:29:28.666Z,2.03
2022-08-06T03:32:13.496Z,1.37
2022-08-06T03:34:49.028Z,1.40
2022-08-06T03:37:22.104Z,2.80
2022-08-06T03:40:13.258Z,2.50
2022-08-06T03:42:43.848Z,2.30
2022-08-06T03:45:23.622Z,2.97
2022-08-06T03:48:07.977Z,2.53
2022-08-06T03:50:46.080Z,2.20
2022-08-06T03:53:20.968Z,1.47
2022-08-06T03:55:57.158Z,1.97
2022-08-06T03:58:28.562Z,2.40
2022-08-06T04:01:02.302Z,2.13
2022-08-06T04:03:39.583Z,1.77
2022-08-06T04:06:16.663Z,2.33
2022-08-06T04:08:50.286Z,2.50
2022-08-06T04:12:14.160Z,3.17
2022-08-06T04:14:09.345Z,3.23
2022-08-06T04:16:39.068Z,3.67
2022-08-06T04:19:13.416Z,2.23
2022-08-06T04:22:59.222Z,2.90
2022-08-06T04:24:33.694Z,2.20
2022-08-06T04:27:05.425Z,3.30
2022-08-06T04:29:56.312Z,1.87
2022-08-06T04:32:28.991Z,3.83
2022-08-06T04:36:05.937Z,2.43
2022-08-06T04:37:53.392Z,1.97
2022-08-06T04:40:27.503Z,2.93
2022-08-06T04:43:04.493Z,3.40
2022-08-06T04:46:15.900Z,3.83
2022-08-06T04:48:23.383Z,1.90
2022-08-06T04:50:54.555Z,1.83
2022-08-06T04:53:30.337Z,2.70
2022-08-06T04:56:15.416Z,2.83
2022-08-06T04:58:46.201Z,2.17
2022-08-06T05:01:14.246Z,3.70
2022-08-06T05:04:07.160Z,2.43
2022-08-06T05:06:37.665Z,3.63
2022-08-06T05:09:23.545Z,4.13
2022-08-06T05:12:07.129Z,3.47
2022-08-06T05:14:42.940Z,2.13
2022-08-06T05:17:15.482Z,3.47
2022-08-06T05:19:47.177Z,3.53
2022-08-06T05:22:19.650Z,2.17
2022-08-06T05:25:19.308Z,2.67
2022-08-06T05:28:03.287Z,3.90
2022-08-06T05:30:44.927Z,2.57
2022-08-06T05:33:16.800Z,2.83
2022-08-06T05:36:00.309Z,3.13
2022-08-06T05:38:31.782Z,2.10
2022-08-06T05:41:02.012Z,2.33
2022-08-06T05:43:57.999Z,2.00
2022-08-06T05:46:21.517Z,1.80
2022-08-06T05:48:58.168Z,1.93
2022-08-06T05:51:45.478Z,3.10
2022-08-06T05:54:23.214Z,3.50
2022-08-06T05:56:59.082Z,1.63
2022-08-06T05:59:57.981Z,3.00
2022-08-06T06:02:26.901Z,3.27
2022-08-06T06:06:02.118Z,2.30
2022-08-06T06:08:09.878Z,2.37
2022-08-06T06:10:34.775Z,3.67
2022-08-06T06:13:24.501Z,2.73
2022-08-06T06:16:08.022Z,4.00
2022-08-06T06:18:53.855Z,3.00
2022-08-06T06:21:32.770Z,3.70
2022-08-06T06:24:09.047Z,5.00
2022-08-06T06:26:43.729Z,2.03
2022-08-06T06:30:05.153Z,3.03
2022-08-06T06:32:28.487Z,3.17
2022-08-06T06:35:07.134Z,3.97
2022-08-06T06:37:44.030Z,3.70
2022-08-06T06:40:29.105Z,2.37
2022-08-06T06:43:04.883Z,2.03
2022-08-06T06:46:04.753Z,1.70
2022-08-06T06:48:34.667Z,1.90
2022-08-06T06:51:09.519Z,3.03
2022-08-06T06:54:06.666Z,3.07
2022-08-06T06:56:36.521Z,2.30
2022-08-06T06:59:13.081Z,4.18
2022-08-06T07:01:51.019Z,3.22
2022-08-06T07:04:26.564Z,3.30
2022-08-06T07:06:57.731Z,1.60
2022-08-06T07:09:40.345Z,3.53
2022-08-06T07:12:19.756Z,3.15
2022-08-06T07:15:00.882Z,2.38
2022-08-06T07:17:44.721Z,2.47
2022-08-06T07:20:18.839Z,3.58
2022-08-06T07:24:02.888Z,2.53
2022-08-06T07:25:53.912Z,2.70
2022-08-06T07:28:28.317Z,4.18
2022-08-06T07:31:04.294Z,2.38
2022-08-06T07:33:59.877Z,4.28
2022-08-06T07:36:37.783Z,3.78
2022-08-06T07:39:14.619Z,1.80
2022-08-06T07:42:08.092Z,2.83
2022-08-06T07:44:56.632Z,1.60
2022-08-06T07:47:37.174Z,3.67
2022-08-06T07:50:17.183Z,1.25
2022-08-06T07:52:45.479Z,3.63
2022-08-06T07:55:16.053Z,1.67
2022-08-06T07:57:55.342Z,2.00
2022-08-06T08:00:28.847Z,1.23
2022-08-06T08:03:43.196Z,2.47
2022-08-06T08:06:22.957Z,1.95
2022-08-06T08:08:54.487Z,2.78
2022-08-06T08:11:37.817Z,2.60
2022-08-06T08:14:15.647Z,3.70
2022-08-06T08:16:43.992Z,3.72
2022-08-06T08:19:23.660Z,2.22
2022-08-06T08:21:53.880Z,2.67
2022-08-06T08:24:21.807Z,1.50
2022-08-06T08:27:04.494Z,2.05
2022-08-06T08:29:34.704Z,1.70
2022-08-06T08:32:05.242Z,1.83
2022-08-06T08:34:46.909Z,6.35
2022-08-06T08:37:31.944Z,2.22
2022-08-06T08:40:01.229Z,1.63
2022-08-06T08:42:38.098Z,3.35
2022-08-06T08:45:12.967Z,3.30
2022-08-06T08:47:53.773Z,3.08
2022-08-06T08:50:29.471Z,4.25
2022-08-06T08:53:04.563Z,2.05
2022-08-06T08:57:11.242Z,3.80
2022-08-06T08:58:42.052Z,5.32
2022-08-06T09:01:51.462Z,2.05
2022-08-06T09:04:05.508Z,3.60
2022-08-06T09:06:37.171Z,2.03
2022-08-06T09:09:16.190Z,2.65
2022-08-06T09:12:04.943Z,5.68
2022-08-06T09:14:34.055Z,4.07
2022-08-06T09:17:03.602Z,2.78
2022-08-06T09:19:38.120Z,3.15
2022-08-06T09:22:11.872Z,2.65
2022-08-06T09:24:41.830Z,2.83
2022-08-06T09:27:45.442Z,3.33
2022-08-06T09:30:11.699Z,5.50
2022-08-06T09:32:54.802Z,2.88
2022-08-06T09:35:44.849Z,1.92
2022-08-06T09:38:16.282Z,3.85
2022-08-06T09:41:06.358Z,4.55
2022-08-06T09:44:03.211Z,4.45
2022-08-06T09:46:51.537Z,3.42
2022-08-06T09:49:47.451Z,3.70
2022-08-06T09:52:17.257Z,2.38
2022-08-06T09:54:52.715Z,2.92
2022-08-06T09:57:33.285Z,1.92
2022-08-06T10:00:05.290Z,2.63
2022-08-06T10:02:50.772Z,3.45
2022-08-06T10:05:20.989Z,4.63
2022-08-06T10:08:05.633Z,3.10
2022-08-06T10:10:44.485Z,2.95
2022-08-06T10:13:19.702Z,3.58
2022-08-06T10:16:00.884Z,2.28
2022-08-06T10:18:54.645Z,4.07
2022-08-06T10:21:41.298Z,4.28
2022-08-06T10:24:12.419Z,5.20
2022-08-06T10:26:43.477Z,5.68
2022-08-06T10:29:17.737Z,6.88
2022-08-06T10:31:53.038Z,3.88
2022-08-06T10:34:33.557Z,2.60
2022-08-06T10:37:10.671Z,3.15
2022-08-06T10:40:07.893Z,3.22
2022-08-06T10:42:40.108Z,2.85
2022-08-06T10:45:13.691Z,3.83
2022-08-06T10:48:59.449Z,2.33
2022-08-06T10:50:44.351Z,4.30
2022-08-06T10:53:59.849Z,4.97
2022-08-06T10:56:09.272Z,4.68
2022-08-06T10:58:41.636Z,6.60
2022-08-06T11:01:22.103Z,5.85
2022-08-06T11:04:06.623Z,5.85
2022-08-06T11:07:09.831Z,4.68
2022-08-06T11:10:02.274Z,4.75
2022-08-06T11:12:48.127Z,3.88
2022-08-06T11:15:22.613Z,4.50
2022-08-06T11:17:54.140Z,6.53
2022-08-06T11:20:47.726Z,4.90
2022-08-06T11:23:58.609Z,12.07
2022-08-06T11:26:36.579Z,13.73
2022-08-06T11:29:08.327Z,5.75
2022-08-06T11:31:39.022Z,5.45
2022-08-06T11:34:27.294Z,5.78
2022-08-06T11:37:11.122Z,6.60
2022-08-06T11:40:07.578Z,5.22
2022-08-06T11:42:50.424Z,5.93
2022-08-06T11:46:21.144Z,5.40
2022-08-06T11:48:12.617Z,3.95
2022-08-06T11:50:56.550Z,4.63
2022-08-06T11:53:46.381Z,4.40
2022-08-06T11:56:25.631Z,7.63
2022-08-06T11:59:14.584Z,6.13
2022-08-06T12:01:49.650Z,4.80
2022-08-06T12:04:41.969Z,5.38
2022-08-06T12:07:24.483Z,4.32
2022-08-06T12:10:02.238Z,7.35
2022-08-06T12:12:39.083Z,4.93
2022-08-06T12:15:53.214Z,4.47
2022-08-06T12:18:31.222Z,4.95
2022-08-06T12:21:01.280Z,5.50
2022-08-06T12:23:54.060Z,8.18
2022-08-06T12:26:33.653Z,8.35
2022-08-06T12:29:07.194Z,4.00
2022-08-06T12:31:44.157Z,4.00
2022-08-06T12:34:31.234Z,4.00
2022-08-06T12:37:00.291Z,3.35
2022-08-06T12:39:47.942Z,5.18
2022-08-06T12:42:53.666Z,3.80
2022-08-06T12:46:05.438Z,5.32
2022-08-06T12:48:05.339Z,5.28
2022-08-06T12:50:42.251Z,4.28
2022-08-06T12:53:14.469Z,7.72
2022-08-06T12:55:56.414Z,9.73
2022-08-06T12:58:43.026Z,4.57
2022-08-06T13:01:16.517Z,4.80
2022-08-06T13:04:06.712Z,11.70
2022-08-06T13:06:38.655Z,5.80
2022-08-06T13:09:10.180Z,3.90
2022-08-06T13:11:42.226Z,3.70
2022-08-06T13:14:18.479Z,4.45
2022-08-06T13:16:56.200Z,5.63
2022-08-06T13:19:28.289Z,4.97
2022-08-06T13:22:09.212Z,7.28
2022-08-06T13:25:01.646Z,4.97
2022-08-06T13:27:35.374Z,4.75
2022-08-06T13:30:35.837Z,4.22
2022-08-06T13:33:13.341Z,4.82
2022-08-06T13:35:41.975Z,6.57
2022-08-06T13:38:16.738Z,4.32
2022-08-06T13:40:56.871Z,11.20
2022-08-06T13:43:43.132Z,9.18
2022-08-06T13:46:28.279Z,5.50
2022-08-06T13:49:01.390Z,10.65
2022-08-06T13:51:35.278Z,6.47
2022-08-06T13:54:16.127Z,5.53
2022-08-06T13:56:48.716Z,4.75
2022-08-06T13:59:39.683Z,7.22
2022-08-06T14:02:09.562Z,5.70
2022-08-06T14:04:40.654Z,8.23
2022-08-06T14:07:09.465Z,6.13
2022-08-06T14:09:58.382Z,5.18
2022-08-06T14:12:29.577Z,5.10
2022-08-06T14:14:59.731Z,7.03
2022-08-06T14:17:33.772Z,11.35
2022-08-06T14:20:16.119Z,7.13
2022-08-06T14:22:48.311Z,5.80
2022-08-06T14:25:17.704Z,7.20
2022-08-06T14:27:46.050Z,5.18
2022-08-06T14:30:25.362Z,5.55
2022-08-06T14:33:00.568Z,12.75
2022-08-06T14:35:50.545Z,6.72
2022-08-06T14:38:20.408Z,9.52
2022-08-06T14:41:09.818Z,7.25
2022-08-06T14:43:57.709Z,6.88
2022-08-06T14:46:31.474Z,7.38
2022-08-06T14:49:05.785Z,7.95
2022-08-06T14:52:19.338Z,10.07
2022-08-06T14:54:31.612Z,11.60
2022-08-06T14:57:02.356Z,11.05
2022-08-06T14:59:32.101Z,7.70
2022-08-06T15:02:15.143Z,6.78
2022-08-06T15:04:45.809Z,6.50
2022-08-06T15:07:24.978Z,12.88
2022-08-06T15:10:04.998Z,9.07
2022-08-06T15:12:48.535Z,7.00
2022-08-06T15:15:23.946Z,7.22
2022-08-06T15:18:17.505Z,11.43
2022-08-06T15:20:55.285Z,7.38
2022-08-06T15:23:44.903Z,8.32
2022-08-06T15:26:47.124Z,7.72
2022-08-06T15:29:04.669Z,9.38
2022-08-06T15:31:39.854Z,8.65
2022-08-06T15:34:12.145Z,6.60
2022-08-06T15:37:02.883Z,6.30
2022-08-06T15:39:53.253Z,5.47
2022-08-06T15:42:19.024Z,7.82
2022-08-06T15:44:47.123Z,6.40
2022-08-06T15:47:15.852Z,6.63
2022-08-06T15:50:03.084Z,7.63
2022-08-06T15:52:34.512Z,6.80
2022-08-06T15:55:15.499Z,8.05
2022-08-06T15:57:50.147Z,16.05
2022-08-06T16:00:35.866Z,13.85
2022-08-06T16:03:06.431Z,7.55
2022-08-06T16:06:12.467Z,7.13
2022-08-06T16:08:33.986Z,6.85
2022-08-06T16:11:08.765Z,6.20
2022-08-06T16:13:38.576Z,5.22
2022-08-06T16:16:08.110Z,6.00
2022-08-06T16:18:49.000Z,7.22
2022-08-06T16:21:23.038Z,6.68
2022-08-06T16:23:57.070Z,5.82
2022-08-06T16:26:42.947Z,5.57
2022-08-06T16:29:19.894Z,6.18
2022-08-06T16:31:53.682Z,6.30
2022-08-06T16:34:25.184Z,7.78
2022-08-06T16:37:01.333Z,6.00
2022-08-06T16:39:35.916Z,5.05
2022-08-06T16:42:06.321Z,6.40
2022-08-06T16:44:36.448Z,6.35
2022-08-06T16:47:18.494Z,5.68
2022-08-06T16:50:19.495Z,5.40
2022-08-06T16:52:44.599Z,6.25
2022-08-06T16:55:24.413Z,6.88
2022-08-06T16:57:57.666Z,5.97
2022-08-06T17:00:59.547Z,5.80
2022-08-06T17:03:43.113Z,7.75
2022-08-06T17:06:07.096Z,6.25
2022-08-06T17:08:36.455Z,5.35
2022-08-06T17:11:45.593Z,5.47
2022-08-06T17:13:57.502Z,5.90
2022-08-06T17:16:29.813Z,6.15
2022-08-06T17:18:58.490Z,8.05
2022-08-06T17:21:58.026Z,7.47
2022-08-06T17:24:15.979Z,7.97
2022-08-06T17:29:46.537Z,6.80
2022-08-06T17:32:29.826Z,7.15
2022-08-06T17:35:01.386Z,6.70
2022-08-06T17:37:44.165Z,11.80
2022-08-06T17:40:18.661Z,8.75
2022-08-06T17:42:56.323Z,7.32
2022-08-06T17:45:24.409Z,6.57
2022-08-06T17:47:52.497Z,8.00
2022-08-06T17:50:20.791Z,7.00
2022-08-06T17:52:48.745Z,6.88
2022-08-06T17:55:20.326Z,6.28
2022-08-06T17:58:38.027Z,9.65
2022-08-06T18:01:06.160Z,7.70
2022-08-06T18:03:49.558Z,7.35
2022-08-06T18:06:18.619Z,7.82
2022-08-06T18:08:50.515Z,7.75
2022-08-06T18:11:20.555Z,8.65
2022-08-06T18:13:55.008Z,6.50
2022-08-06T18:16:28.045Z,8.68
2022-08-06T18:18:58.414Z,7.38
2022-08-06T18:21:27.581Z,6.85
2022-08-06T18:23:55.939Z,7.07
2022-08-06T18:26:30.705Z,6.57
2022-08-06T18:29:04.285Z,6.60
2022-08-06T18:31:58.796Z,7.60
2022-08-06T18:34:29.575Z,8.52
2022-08-06T18:37:05.645Z,7.07
2022-08-06T18:40:19.268Z,7.30
2022-08-06T18:42:36.349Z,7.33
2022-08-06T18:45:10.165Z,6.90
2022-08-06T18:47:42.729Z,7.20
2022-08-06T18:50:10.820Z,6.38
2022-08-06T18:52:40.187Z,10.18
2022-08-06T18:55:17.779Z,9.10
2022-08-06T18:58:04.404Z,6.55
2022-08-06T19:00:52.794Z,6.23
2022-08-06T19:03:24.641Z,6.57
2022-08-06T19:06:09.323Z,6.53
2022-08-06T19:08:39.598Z,6.67
2022-08-06T19:11:07.835Z,7.67
2022-08-06T19:13:56.644Z,7.10
2022-08-06T19:16:26.948Z,6.50
2022-08-06T19:18:57.713Z,6.33
2022-08-06T19:21:26.668Z,6.40
2022-08-06T19:24:01.850Z,6.43
2022-08-06T19:26:35.165Z,6.63
2022-08-06T19:29:05.233Z,6.63
2022-08-06T19:31:43.035Z,6.20
2022-08-06T19:34:14.551Z,6.97
2022-08-06T19:36:44.840Z,7.97
2022-08-06T19:39:58.833Z,6.00
2022-08-06T19:42:02.675Z,6.17
2022-08-06T19:44:37.262Z,5.90
2022-08-06T19:47:15.472Z,6.43
2022-08-06T19:49:52.902Z,6.20
2022-08-06T19:52:25.596Z,6.83
2022-08-06T19:54:54.465Z,6.50
2022-08-06T19:57:30.230Z,6.37
2022-08-06T20:00:50.918Z,6.03
2022-08-06T20:02:53.283Z,6.97
2022-08-06T20:05:25.110Z,8.57
2022-08-06T20:08:32.203Z,7.50
2022-08-06T20:11:01.279Z,7.60
2022-08-06T20:13:30.415Z,7.63
2022-08-06T20:16:03.874Z,8.10
2022-08-06T20:18:35.397Z,7.27
2022-08-06T20:21:05.134Z,7.70
2022-08-06T20:23:40.567Z,9.57
2022-08-06T20:26:34.869Z,7.50
2022-08-06T20:29:09.297Z,6.77
2022-08-06T20:31:49.509Z,6.43
2022-08-06T20:34:27.348Z,6.57
2022-08-06T20:36:57.707Z,6.57
2022-08-06T20:39:27.169Z,9.17
2022-08-06T20:42:02.876Z,7.17
2022-08-06T20:44:32.954Z,8.13
2022-08-06T20:47:46.625Z,7.93
2022-08-06T20:50:04.552Z,7.23
2022-08-06T20:52:33.687Z,8.07
2022-08-06T20:55:02.574Z,7.33
2022-08-06T20:57:37.213Z,6.97
2022-08-06T21:00:17.759Z,8.60
2022-08-06T21:03:03.534Z,6.87
2022-08-06T21:05:50.835Z,6.60
2022-08-06T21:08:26.668Z,7.93
2022-08-06T21:10:56.821Z,7.80
2022-08-06T21:13:36.869Z,6.40
2022-08-06T21:16:14.760Z,6.87
2022-08-06T21:19:00.455Z,6.87
2022-08-06T21:21:31.957Z,6.50
2022-08-06T21:24:00.874Z,6.83
2022-08-06T21:26:34.638Z,6.77
2022-08-06T21:30:07.277Z,5.93
2022-08-06T21:31:52.633Z,6.57
2022-08-06T21:34:22.887Z,7.43
2022-08-06T21:36:53.524Z,6.97
2022-08-06T21:39:24.437Z,6.50
2022-08-06T21:42:12.304Z,7.97
2022-08-06T21:44:40.682Z,7.50
2022-08-06T21:47:08.720Z,7.13
2022-08-06T21:49:58.542Z,7.70
2022-08-06T21:52:30.944Z,8.83
2022-08-06T21:55:05.268Z,10.67
2022-08-06T21:57:45.457Z,7.40
2022-08-06T22:00:34.327Z,8.53
2022-08-06T22:03:07.041Z,7.50
2022-08-06T22:06:20.842Z,7.63
2022-08-06T22:08:32.341Z,7.87
2022-08-06T22:12:38.867Z,9.87
2022-08-06T22:14:01.052Z,7.87
2022-08-06T22:16:33.193Z,7.97
2022-08-06T22:19:02.463Z,7.63
2022-08-06T22:21:49.661Z,7.77
2022-08-06T22:24:20.020Z,7.70
2022-08-06T22:26:48.140Z,7.77
2022-08-06T22:29:27.303Z,9.13
2022-08-06T22:32:00.245Z,7.93
2022-08-06T22:34:36.111Z,9.20
2022-08-06T22:37:14.829Z,8.77
2022-08-06T22:39:44.445Z,7.47
2022-08-06T22:42:20.578Z,7.73
2022-08-06T22:45:47.524Z,8.50
2022-08-06T22:47:49.585Z,7.87
2022-08-06T22:50:25.903Z,7.77
2022-08-06T22:53:02.629Z,7.47
2022-08-06T22:55:49.045Z,7.83
2022-08-06T22:59:04.985Z,8.87
2022-08-06T23:01:23.095Z,9.60
2022-08-06T23:03:55.053Z,10.30
2022-08-06T23:06:28.834Z,12.43
2022-08-06T23:09:00.149Z,8.47
2022-08-06T23:11:28.860Z,9.43
2022-08-06T23:13:56.964Z,9.60
2022-08-06T23:16:28.316Z,10.60
2022-08-06T23:18:56.865Z,9.93
2022-08-06T23:21:50.409Z,10.10
2022-08-06T23:24:32.897Z,10.43
2022-08-06T23:27:06.957Z,10.87
2022-08-06T23:30:09.456Z,10.17
2022-08-06T23:32:29.879Z,10.20
2022-08-06T23:34:58.559Z,10.37
2022-08-06T23:37:31.903Z,9.83
2022-08-06T23:40:14.945Z,10.30
2022-08-06T23:42:45.668Z,9.63
2022-08-06T23:45:17.991Z,12.17
2022-08-06T23:47:53.506Z,10.77
2022-08-06T23:50:26.076Z,10.13
2022-08-06T23:53:06.236Z,10.57
2022-08-06T23:55:37.130Z,10.47
2022-08-06T23:58:06.354Z,11.17
